Time;durP1;ratioP1;P1;durP2;ratioP2;P2;SDS_P1;SDS_P2;PMS_P1;PMS_P2;Temp;Humidity;BMP_temperature;BMP_pressure;BME280_temperature;BME280_humidity;BME280_pressure;Samples;Min_cycle;Max_cycle;Signal;HPM_P1;HPM_P2
2022/04/26 03:36:44;;;;;;;5.07;0.70;;;13.00;75.80;;;;;;4975944;28;20228;-74
2022/04/26 03:39:10;;;;;;;0.35;0.35;;;12.90;75.70;;;;;;4977645;28;20198;-74
2022/04/26 03:41:37;;;;;;;0.47;0.47;;;12.90;75.50;;;;;;4978380;28;20180;-74
2022/04/26 03:44:03;;;;;;;0.55;0.50;;;12.90;75.40;;;;;;4976816;28;20204;-75
2022/04/26 03:46:29;;;;;;;0.50;0.50;;;12.80;74.60;;;;;;4979786;28;20189;-75
2022/04/26 03:48:54;;;;;;;0.77;0.77;;;12.90;75.60;;;;;;4979630;28;20186;-75
2022/04/26 03:51:20;;;;;;;0.68;0.68;;;12.90;75.00;;;;;;5008088;28;20669;-74
2022/04/26 03:53:49;;;;;;;0.77;0.57;;;12.80;75.40;;;;;;5029841;28;20196;-75
2022/04/26 03:56:15;;;;;;;7.35;0.60;;;12.80;75.80;;;;;;5035228;28;20277;-74
2022/04/26 03:58:41;;;;;;;0.80;0.80;;;12.90;76.10;;;;;;5030423;28;20621;-74
2022/04/26 04:01:07;;;;;;;1.30;0.88;;;12.90;76.10;;;;;;5032226;28;20183;-74
2022/04/26 04:03:36;;;;;;;0.77;0.73;;;12.90;76.00;;;;;;5031767;28;20202;-75
2022/04/26 04:06:02;;;;;;;0.60;0.60;;;12.90;75.60;;;;;;5029662;28;20911;-76
2022/04/26 04:08:28;;;;;;;2.50;0.60;;;13.00;76.00;;;;;;5031422;28;20219;-76
2022/04/26 04:10:54;;;;;;;0.70;0.70;;;13.00;75.90;;;;;;5028950;28;20660;-76
2022/04/26 04:13:20;;;;;;;0.75;0.57;;;13.00;75.70;;;;;;5027991;28;20271;-73
2022/04/26 04:15:49;;;;;;;1.55;0.60;;;13.10;75.50;;;;;;5030298;28;20176;-73
2022/04/26 04:21:00;;;;;;;3.50;0.70;;;13.10;75.40;;;;;;5030874;28;20222;-74
2022/04/26 04:23:26;;;;;;;1.10;0.68;;;13.20;75.40;;;;;;5027543;28;20180;-73
2022/04/26 04:25:52;;;;;;;0.95;0.95;;;13.20;75.30;;;;;;5029716;28;20693;-73
2022/04/26 04:28:18;;;;;;;1.23;1.23;;;13.20;75.30;;;;;;5029824;28;20310;-74
2022/04/26 04:30:44;;;;;;;0.98;0.98;;;13.20;75.40;;;;;;5031261;28;20179;-74
2022/04/26 04:33:10;;;;;;;3.28;0.98;;;13.20;75.30;;;;;;5028936;28;20842;-72
2022/04/26 04:35:36;;;;;;;7.28;1.27;;;13.20;74.90;;;;;;5026982;28;20180;-73
2022/04/26 04:38:01;;;;;;;0.90;0.90;;;13.20;75.60;;;;;;5033847;28;20218;-74
2022/04/26 04:40:27;;;;;;;0.52;0.43;;;13.20;75.30;;;;;;5029722;28;20212;-75
2022/04/26 04:42:53;;;;;;;1.85;0.77;;;13.20;74.90;;;;;;5031914;28;20316;-76
2022/04/26 04:45:18;;;;;;;3.15;0.85;;;13.30;74.90;;;;;;5029375;28;20197;-75
2022/04/26 04:47:45;;;;;;;3.88;0.93;;;13.30;75.20;;;;;;5025713;28;20211;-76
2022/04/26 04:50:11;;;;;;;2.17;1.10;;;13.40;74.80;;;;;;5028227;28;20203;-75
2022/04/26 04:52:36;;;;;;;0.90;0.90;;;13.40;74.70;;;;;;5030695;28;20180;-75
2022/04/26 04:55:02;;;;;;;1.23;0.73;;;13.50;74.50;;;;;;5031125;28;20666;-75
2022/04/26 04:57:28;;;;;;;3.50;0.80;;;13.50;74.50;;;;;;5023922;28;20239;-76
2022/04/26 04:59:53;;;;;;;3.97;1.13;;;13.50;74.30;;;;;;5029433;28;20180;-74
2022/04/26 05:02:19;;;;;;;0.70;0.70;;;13.60;74.20;;;;;;5027793;28;20802;-76
2022/04/26 05:04:47;;;;;;;0.70;0.70;;;13.60;74.00;;;;;;5026893;28;20215;-75
2022/04/26 05:07:13;;;;;;;2.40;0.52;;;13.70;73.80;;;;;;5033027;28;20183;-75
2022/04/26 05:09:39;;;;;;;1.45;0.60;;;13.70;73.50;;;;;;5029136;28;20183;-74
2022/04/26 05:12:05;;;;;;;3.28;0.70;;;13.80;73.40;;;;;;5024026;28;20198;-74
2022/04/26 05:14:32;;;;;;;6.32;0.70;;;13.80;73.20;;;;;;5023154;28;20203;-74
2022/04/26 05:16:58;;;;;;;2.13;0.50;;;13.90;72.90;;;;;;5029395;28;20218;-76
2022/04/26 05:19:26;;;;;;;1.50;0.77;;;14.00;72.70;;;;;;5034283;28;20654;-76
2022/04/26 05:21:51;;;;;;;0.55;0.50;;;14.00;72.50;;;;;;5022103;28;20701;-75
2022/04/26 05:27:01;;;;;;;3.20;0.50;;;14.20;72.60;;;;;;5026986;28;20283;-74
2022/04/26 05:29:27;;;;;;;2.38;0.57;;;14.20;72.40;;;;;;5029430;28;20262;-75
2022/04/26 05:31:53;;;;;;;0.60;0.57;;;14.30;72.10;;;;;;5032743;28;20254;-75
2022/04/26 05:34:19;;;;;;;0.43;0.43;;;14.40;72.00;;;;;;5032125;28;20172;-76
2022/04/26 05:36:44;;;;;;;0.60;0.60;;;14.40;71.50;;;;;;5025748;28;20211;-75
2022/04/26 05:39:10;;;;;;;0.73;0.60;;;14.50;71.40;;;;;;5030074;28;20826;-75
2022/04/26 05:41:36;;;;;;;3.28;0.80;;;14.50;71.40;;;;;;5030921;28;20188;-76
2022/04/26 05:44:01;;;;;;;0.70;0.70;;;14.60;71.40;;;;;;5034484;28;20172;-75
2022/04/26 05:46:27;;;;;;;3.38;0.70;;;14.70;71.30;;;;;;5026287;28;20190;-76
2022/04/26 05:48:53;;;;;;;3.70;0.65;;;14.70;71.30;;;;;;5026601;28;20190;-76
2022/04/26 05:51:19;;;;;;;0.73;0.70;;;14.80;71.20;;;;;;5028798;28;20172;-74
2022/04/26 05:53:45;;;;;;;0.60;0.60;;;14.90;71.10;;;;;;5038215;28;20581;-76
2022/04/26 05:56:12;;;;;;;2.03;0.80;;;14.90;71.10;;;;;;5028514;28;20838;-75
2022/04/26 05:58:38;;;;;;;0.60;0.60;;;15.00;70.90;;;;;;5028161;28;20458;-76
2022/04/26 06:01:03;;;;;;;1.75;0.93;;;15.10;70.70;;;;;;5033031;28;20171;-76
2022/04/26 06:03:29;;;;;;;3.65;0.93;;;15.10;70.70;;;;;;5030347;28;20235;-75
2022/04/26 06:05:55;;;;;;;3.35;1.10;;;15.20;70.30;;;;;;5028803;28;20203;-75
2022/04/26 06:08:22;;;;;;;1.77;0.95;;;15.30;70.50;;;;;;5026424;28;20203;-75
2022/04/26 06:10:48;;;;;;;6.00;1.45;;;15.30;70.40;;;;;;5026415;28;20183;-75
2022/04/26 06:13:15;;;;;;;1.85;0.90;;;15.40;70.50;;;;;;5026309;28;20183;-75
2022/04/26 06:15:42;;;;;;;1.75;0.60;;;15.40;70.00;;;;;;5035875;28;20245;-75
2022/04/26 06:18:08;;;;;;;0.70;0.70;;;15.50;69.70;;;;;;5035911;28;20298;-75
2022/04/26 06:20:33;;;;;;;0.93;0.55;;;15.60;69.30;;;;;;5030218;28;20279;-76
2022/04/26 06:23:00;;;;;;;0.40;0.40;;;15.60;69.00;;;;;;5026513;28;20248;-76
2022/04/26 06:25:26;;;;;;;7.80;0.77;;;15.70;68.90;;;;;;5032565;28;20172;-76
2022/04/26 06:27:52;;;;;;;0.50;0.50;;;15.70;68.80;;;;;;5033417;28;20187;-76
2022/04/26 06:30:18;;;;;;;1.15;0.50;;;15.70;68.70;;;;;;5030693;28;20183;-75
2022/04/26 06:32:43;;;;;;;1.65;0.82;;;15.80;68.90;;;;;;5024636;28;20226;-75
2022/04/26 06:35:12;;;;;;;2.83;0.63;;;15.80;69.00;;;;;;5028091;28;20180;-76
2022/04/26 06:37:38;;;;;;;0.85;0.65;;;15.90;68.30;;;;;;5031736;28;20223;-76
2022/04/26 06:40:05;;;;;;;2.53;0.50;;;16.00;68.50;;;;;;5027937;28;20184;-75
2022/04/26 06:42:30;;;;;;;4.57;0.80;;;16.00;68.70;;;;;;5032460;28;20183;-75
2022/04/26 06:44:56;;;;;;;0.70;0.70;;;16.10;68.80;;;;;;5025015;28;20249;-75
2022/04/26 06:47:22;;;;;;;1.50;0.47;;;16.20;67.90;;;;;;5031776;28;20200;-75
2022/04/26 06:49:47;;;;;;;0.65;0.65;;;16.20;67.40;;;;;;5026812;28;20188;-76
2022/04/26 06:52:13;;;;;;;1.60;0.57;;;16.30;67.70;;;;;;5027905;28;20187;-75
2022/04/26 06:54:39;;;;;;;1.83;0.77;;;16.30;67.40;;;;;;5029507;28;20183;-74
2022/04/26 06:57:05;;;;;;;0.73;0.70;;;16.40;67.30;;;;;;5029404;28;20254;-76
2022/04/26 06:59:31;;;;;;;2.58;0.50;;;16.50;67.50;;;;;;5026518;28;20725;-75
2022/04/26 07:01:57;;;;;;;2.25;0.75;;;16.60;67.00;;;;;;5032812;28;20259;-75
2022/04/26 07:04:23;;;;;;;3.95;1.02;;;16.70;66.50;;;;;;5030394;28;20212;-75
2022/04/26 07:06:49;;;;;;;0.45;0.45;;;16.80;65.70;;;;;;5022991;28;20243;-75
2022/04/26 07:09:15;;;;;;;0.50;0.50;;;16.80;66.50;;;;;;5032338;28;20175;-75
2022/04/26 07:11:42;;;;;;;0.57;0.57;;;16.90;66.60;;;;;;5028116;28;20203;-75
2022/04/26 07:14:12;;;;;;;1.65;0.75;;;17.00;66.20;;;;;;5031557;28;20273;-75
2022/04/26 07:16:39;;;;;;;0.68;0.57;;;17.10;65.70;;;;;;5041074;28;20656;-75
2022/04/26 07:19:05;;;;;;;0.65;0.40;;;17.10;65.80;;;;;;5032545;28;20180;-75
2022/04/26 07:21:31;;;;;;;2.08;0.45;;;17.20;65.70;;;;;;5030830;28;20176;-75
2022/04/26 07:23:57;;;;;;;0.52;0.43;;;17.30;65.80;;;;;;5030099;28;20376;-75
2022/04/26 07:26:22;;;;;;;0.60;0.30;;;17.30;65.50;;;;;;5042375;28;20188;-75
2022/04/26 07:28:48;;;;;;;0.77;0.35;;;17.50;64.00;;;;;;5044317;28;20191;-75
2022/04/26 07:31:14;;;;;;;1.17;0.52;;;17.50;64.70;;;;;;5029786;28;20900;-74
2022/04/26 07:36:24;;;;;;;0.32;0.30;;;17.70;64.40;;;;;;5029127;28;20280;-75
2022/04/26 07:38:50;;;;;;;0.45;0.35;;;17.80;64.10;;;;;;5035321;28;20180;-75
2022/04/26 07:41:17;;;;;;;2.80;0.40;;;17.90;63.90;;;;;;5034933;28;20208;-75
2022/04/26 07:43:44;;;;;;;0.50;0.40;;;17.90;63.60;;;;;;5033512;28;20185;-75
2022/04/26 07:46:14;;;;;;;1.25;0.57;;;18.00;64.00;;;;;;5029495;28;20184;-76
2022/04/26 07:48:43;;;;;;;0.30;0.30;;;18.10;63.60;;;;;;5037936;28;20175;-75
2022/04/26 07:51:09;;;;;;;0.32;0.32;;;18.20;63.90;;;;;;5037872;28;20192;-75
2022/04/26 07:53:35;;;;;;;4.30;0.50;;;18.20;64.10;;;;;;5031751;28;20177;-75
2022/04/26 07:56:01;;;;;;;0.77;0.40;;;18.30;63.30;;;;;;5029692;28;20184;-75
2022/04/26 07:58:27;;;;;;;0.80;0.20;;;18.40;63.50;;;;;;5037587;28;20180;-75
2022/04/26 08:00:53;;;;;;;1.25;0.30;;;18.50;63.80;;;;;;5034754;28;20679;-75
2022/04/26 08:03:20;;;;;;;0.57;0.30;;;18.60;63.80;;;;;;5035110;28;20179;-76
2022/04/26 08:05:46;;;;;;;0.32;0.32;;;18.70;63.70;;;;;;5030933;28;20180;-75
2022/04/26 08:08:12;;;;;;;1.20;0.30;;;18.80;63.00;;;;;;5039859;28;20197;-75
2022/04/26 08:10:38;;;;;;;0.40;0.40;;;18.80;62.80;;;;;;5029988;28;20184;-75
2022/04/26 08:13:04;;;;;;;0.40;0.40;;;18.90;62.90;;;;;;5030978;28;20265;-75
2022/04/26 08:15:30;;;;;;;1.27;0.43;;;19.00;63.20;;;;;;5034023;28;20184;-75
2022/04/26 08:17:55;;;;;;;0.75;0.40;;;19.20;63.60;;;;;;5032207;28;20606;-75
2022/04/26 08:20:22;;;;;;;1.05;0.55;;;19.30;63.40;;;;;;5027529;28;20178;-75
2022/04/26 08:22:48;;;;;;;0.32;0.32;;;19.40;63.00;;;;;;5026893;28;20184;-76
2022/04/26 08:27:58;;;;;;;0.50;0.50;;;19.60;62.90;;;;;;5027846;28;20643;-75
2022/04/26 08:30:24;;;;;;;1.42;0.70;;;19.80;62.70;;;;;;5026142;28;20189;-76
2022/04/26 08:32:50;;;;;;;0.45;0.40;;;19.80;63.30;;;;;;5036434;28;20829;-75
2022/04/26 08:35:23;;;;;;;1.90;0.60;;;20.00;63.30;;;;;;5029865;28;20191;-75
2022/04/26 08:37:49;;;;;;;0.73;0.73;;;20.00;62.70;;;;;;5058292;28;20216;-76
2022/04/26 08:40:16;;;;;;;1.48;0.65;;;20.20;62.50;;;;;;5033606;28;20670;-75
2022/04/26 08:42:44;;;;;;;2.95;0.70;;;20.30;63.40;;;;;;5036498;28;20920;-75
2022/04/26 08:45:15;;;;;;;0.65;0.65;;;20.40;63.00;;;;;;5030362;28;20227;-75
2022/04/26 08:53:16;;;;;;;2.85;0.80;;;20.80;63.00;;;;;;5029836;28;20237;-75
2022/04/26 08:55:43;;;;;;;2.40;0.93;;;20.90;62.10;;;;;;5029325;28;20623;-76
2022/04/26 08:58:11;;;;;;;5.53;1.13;;;21.00;63.00;;;;;;5032801;28;20220;-76
2022/04/26 09:00:41;;;;;;;4.95;1.33;;;21.20;63.20;;;;;;5027522;28;20183;-76
2022/04/26 09:03:08;;;;;;;4.47;1.00;;;21.30;62.60;;;;;;5029287;28;20195;-75
2022/04/26 09:05:35;;;;;;;3.15;0.80;;;21.40;62.70;;;;;;5034746;28;20275;-75
2022/04/26 09:08:18;;;;;;;2.40;0.90;;;21.50;62.60;;;;;;5035912;28;20191;-77
2022/04/26 09:10:48;;;;;;;1.48;0.85;;;21.70;63.30;;;;;;5025224;28;20180;-76
2022/04/26 09:13:15;;;;;;;3.42;0.82;;;21.90;63.10;;;;;;5035578;28;20244;-78
2022/04/26 09:15:45;;;;;;;8.02;0.98;;;22.10;62.00;;;;;;5029697;28;20185;-76
2022/04/26 09:18:31;;;;;;;4.40;1.00;;;22.30;62.00;;;;;;5028142;28;20226;-76
2022/04/26 09:20:58;;;;;;;3.05;1.10;;;22.50;61.00;;;;;;5026244;28;20797;-76
2022/04/26 09:23:26;;;;;;;6.00;1.05;;;22.80;61.20;;;;;;5027256;28;20187;-77
2022/04/26 09:26:12;;;;;;;2.78;1.13;;;23.10;60.10;;;;;;5030092;28;20203;-77
2022/04/26 09:28:50;;;;;;;1.27;1.00;;;23.50;60.00;;;;;;5035141;28;20252;-78
2022/04/26 09:31:22;;;;;;;10.05;1.35;;;24.00;59.40;;;;;;5023960;28;20325;-76
2022/04/26 09:33:52;;;;;;;1.58;1.00;;;24.40;58.40;;;;;;5030162;28;20246;-78
2022/04/26 09:36:21;;;;;;;2.20;1.27;;;25.00;58.10;;;;;;5020869;28;20208;-78
2022/04/26 09:38:57;;;;;;;3.97;1.00;;;25.60;57.80;;;;;;5032262;28;20184;-78
2022/04/26 09:41:25;;;;;;;5.03;0.90;;;26.30;56.50;;;;;;5029702;28;20184;-79
2022/04/26 09:44:08;;;;;;;3.20;0.88;;;27.10;55.70;;;;;;5020542;28;20206;-77
2022/04/26 09:46:40;;;;;;;4.30;1.30;;;27.90;54.20;;;;;;5027034;28;20194;-77
2022/04/26 09:49:06;;;;;;;2.33;1.20;;;28.60;53.10;;;;;;5021287;28;20188;-77
2022/04/26 09:51:32;;;;;;;1.95;0.98;;;29.40;51.80;;;;;;5024481;28;20192;-77
2022/04/26 09:53:58;;;;;;;4.97;0.90;;;30.00;51.60;;;;;;5026861;28;20238;-77
2022/04/26 09:56:27;;;;;;;3.30;1.00;;;30.70;49.00;;;;;;5027874;28;20219;-77
2022/04/26 09:58:57;;;;;;;4.97;1.30;;;31.20;49.10;;;;;;5024946;28;20480;-77
2022/04/26 10:01:46;;;;;;;7.53;1.00;;;31.80;48.20;;;;;;5031173;28;20188;-77
2022/04/26 10:04:20;;;;;;;2.55;0.70;;;32.30;48.10;;;;;;5023528;28;20825;-77
2022/04/26 10:06:49;;;;;;;1.95;1.08;;;32.90;48.10;;;;;;5062434;28;20183;-77
2022/04/26 10:09:16;;;;;;;7.28;1.00;;;33.20;47.70;;;;;;5027910;28;20255;-77
2022/04/26 10:11:41;;;;;;;1.95;0.98;;;33.60;47.70;;;;;;5023515;28;20255;-76
2022/04/26 10:14:09;;;;;;;2.95;0.82;;;34.00;47.00;;;;;;5025230;28;20260;-76
2022/04/26 10:16:36;;;;;;;5.28;1.10;;;34.30;46.70;;;;;;5028420;28;20246;-76
2022/04/26 10:19:09;;;;;;;3.20;1.17;;;34.80;46.90;;;;;;5019913;28;20242;-77
2022/04/26 10:21:35;;;;;;;0.73;0.73;;;35.20;44.00;;;;;;5020913;28;20187;-78
2022/04/26 10:24:04;;;;;;;4.30;1.00;;;35.50;46.10;;;;;;5023753;28;20179;-76
2022/04/26 10:26:33;;;;;;;2.78;1.05;;;35.80;45.20;;;;;;5019832;28;20186;-77
2022/04/26 10:29:12;;;;;;;4.80;0.95;;;36.10;45.10;;;;;;5027646;28;20436;-77
2022/04/26 10:32:00;;;;;;;3.33;1.00;;;35.90;44.70;;;;;;5019876;28;20187;-77
2022/04/26 10:34:29;;;;;;;3.92;0.90;;;35.70;43.90;;;;;;5025182;28;20186;-78
2022/04/26 10:36:56;;;;;;;1.30;0.80;;;35.60;43.20;;;;;;5027048;28;20210;-78
2022/04/26 10:39:30;;;;;;;1.70;0.88;;;35.70;44.40;;;;;;5025529;28;20827;-78
2022/04/26 10:41:57;;;;;;;0.95;0.95;;;35.70;44.20;;;;;;5020033;28;20180;-77
2022/04/26 10:44:26;;;;;;;2.38;0.88;;;35.80;43.90;;;;;;5030851;28;20673;-77
2022/04/26 10:46:58;;;;;;;4.10;1.08;;;35.70;44.60;;;;;;5023664;28;20692;-76
2022/04/26 10:49:40;;;;;;;3.22;1.00;;;35.50;44.70;;;;;;5025926;28;20179;-77
2022/04/26 10:52:10;;;;;;;6.85;0.82;;;35.20;42.90;;;;;;5028125;28;20187;-77
2022/04/26 10:55:03;;;;;;;2.67;0.85;;;35.20;44.00;;;;;;5028142;28;20181;-76
2022/04/26 10:57:31;;;;;;;3.25;0.70;;;35.20;42.80;;;;;;4990492;28;20324;-77
2022/04/26 11:00:10;;;;;;;1.85;0.70;;;35.20;44.20;;;;;;4991869;28;20379;-76
2022/04/26 11:02:42;;;;;;;2.58;0.60;;;35.00;42.00;;;;;;4987722;28;20203;-77
2022/04/26 11:05:11;;;;;;;1.67;0.55;;;34.30;42.40;;;;;;4991026;28;20247;-77
2022/04/26 11:07:42;;;;;;;0.70;0.70;;;33.90;42.90;;;;;;4989825;28;20189;-76
2022/04/26 11:10:09;;;;;;;3.00;0.68;;;33.40;44.60;;;;;;4990773;28;20189;-76
2022/04/26 11:12:37;;;;;;;1.80;0.68;;;33.00;44.10;;;;;;4970220;28;20180;-77
2022/04/26 11:15:21;;;;;;;2.45;0.60;;;32.90;44.20;;;;;;4989529;28;20193;-77
2022/04/26 11:17:50;;;;;;;3.65;0.63;;;33.10;43.60;;;;;;4977221;28;20314;-77
2022/04/26 11:20:21;;;;;;;0.80;0.55;;;33.20;42.20;;;;;;4971041;28;20597;-77
2022/04/26 11:22:56;;;;;;;3.67;0.88;;;33.50;42.80;;;;;;4983741;28;20190;-77
2022/04/26 11:28:10;;;;;;;2.10;0.70;;;33.10;42.60;;;;;;4991988;28;20204;-77
2022/04/26 11:30:36;;;;;;;0.60;0.60;;;32.90;41.80;;;;;;4988124;28;20199;-77
2022/04/26 11:33:08;;;;;;;0.90;0.70;;;32.90;43.50;;;;;;4988308;28;20189;-77
2022/04/26 11:35:36;;;;;;;2.20;0.63;;;33.00;44.20;;;;;;5030617;28;20727;-77
2022/04/26 11:38:05;;;;;;;1.52;0.88;;;33.50;44.30;;;;;;5024627;28;20229;-77
2022/04/26 11:40:36;;;;;;;1.58;0.82;;;34.10;43.10;;;;;;5026602;28;21024;-77
2022/04/26 11:43:09;;;;;;;0.50;0.47;;;34.60;43.60;;;;;;5032382;28;20190;-77
2022/04/26 11:45:36;;;;;;;2.47;0.70;;;35.10;42.10;;;;;;5033926;28;20183;-77
2022/04/26 11:48:03;;;;;;;0.70;0.70;;;35.60;40.50;;;;;;5026954;28;20276;-77
2022/04/26 11:50:30;;;;;;;4.38;1.00;;;35.70;41.70;;;;;;5031196;28;20226;-77
2022/04/26 11:53:03;;;;;;;3.50;0.80;;;35.90;41.80;;;;;;5028105;28;20179;-77
2022/04/26 11:55:45;;;;;;;4.78;0.95;;;36.20;42.80;;;;;;5027523;28;20184;-77
2022/04/26 11:58:22;;;;;;;3.22;0.80;;;36.60;40.60;;;;;;5029775;28;20281;-77
2022/04/26 12:00:55;;;;;;;1.67;0.52;;;37.00;40.90;;;;;;5026991;28;20715;-77
2022/04/26 12:03:28;;;;;;;2.10;0.47;;;37.40;40.10;;;;;;5033427;28;20262;-77
2022/04/26 12:06:32;;;;;;;2.05;0.70;;;37.80;39.80;;;;;;5023881;28;20307;-77
2022/04/26 12:09:05;;;;;;;0.60;0.60;;;38.00;39.80;;;;;;5026883;28;20375;-77
2022/04/26 12:11:36;;;;;;;4.18;0.70;;;38.10;40.80;;;;;;5028188;28;20184;-77
2022/04/26 12:14:14;;;;;;;3.03;0.60;;;37.90;41.50;;;;;;5028071;28;20179;-77
2022/04/26 12:24:22;;;;;;;0.90;0.60;;;34.90;39.90;;;;;;5035645;28;20209;-77
2022/04/26 12:26:52;;;;;;;1.58;0.70;;;33.50;40.10;;;;;;5036052;28;20179;-77
2022/04/26 12:29:18;;;;;;;1.35;0.60;;;32.20;42.50;;;;;;5030816;28;20184;-76
2022/04/26 12:31:48;;;;;;;2.53;1.00;;;31.70;44.20;;;;;;5024806;28;20180;-77
2022/04/26 12:34:17;;;;;;;4.30;1.20;;;31.60;45.10;;;;;;5032325;28;20243;-77
2022/04/26 12:37:03;;;;;;;2.55;0.68;;;31.90;45.00;;;;;;5032598;28;20661;-77
2022/04/26 12:39:38;;;;;;;0.57;0.57;;;32.60;43.00;;;;;;5021086;28;20599;-76
2022/04/26 12:42:05;;;;;;;0.80;0.60;;;33.40;42.30;;;;;;5028353;28;20218;-77
2022/04/26 12:44:31;;;;;;;1.85;0.40;;;33.90;42.20;;;;;;5026604;28;20241;-77
2022/04/26 12:52:47;;;;;;;7.28;0.85;;;33.80;41.80;;;;;;5030318;28;20246;-76
2022/04/26 12:55:31;;;;;;;4.00;0.60;;;33.50;42.40;;;;;;5025406;28;20274;-75
2022/04/26 12:58:00;;;;;;;3.95;0.80;;;33.30;43.30;;;;;;5024428;28;20208;-76
2022/04/26 13:00:26;;;;;;;2.58;0.60;;;33.20;43.90;;;;;;5032653;28;20180;-75
2022/04/26 13:02:55;;;;;;;0.30;0.30;;;33.30;43.30;;;;;;5032119;28;20186;-77
2022/04/26 13:05:21;;;;;;;1.73;0.40;;;33.10;43.70;;;;;;5030024;28;20180;-75
2022/04/26 13:07:47;;;;;;;3.92;0.40;;;32.80;43.20;;;;;;5035400;28;20581;-76
2022/04/26 13:10:15;;;;;;;4.22;0.57;;;32.40;44.20;;;;;;5039844;28;20225;-76
2022/04/26 13:12:42;;;;;;;2.05;0.40;;;32.00;44.80;;;;;;5033047;28;20256;-77
2022/04/26 13:15:08;;;;;;;2.92;0.40;;;32.10;44.40;;;;;;5033465;28;20179;-76
2022/04/26 13:17:37;;;;;;;3.75;0.40;;;32.10;44.40;;;;;;5030289;28;20300;-77
2022/04/26 13:20:05;;;;;;;2.97;0.50;;;32.10;44.40;;;;;;5028234;28;20179;-76
2022/04/26 13:22:33;;;;;;;3.85;0.35;;;32.20;44.80;;;;;;5034475;28;20206;-76
2022/04/26 13:24:59;;;;;;;2.75;0.40;;;32.40;44.60;;;;;;5037479;28;20742;-77
2022/04/26 13:27:25;;;;;;;0.40;0.40;;;32.50;43.90;;;;;;5036264;28;20183;-77
2022/04/26 13:29:54;;;;;;;1.23;0.35;;;32.60;43.40;;;;;;5032368;28;20183;-76
2022/04/26 13:32:20;;;;;;;2.38;0.50;;;32.60;43.60;;;;;;5024547;28;20204;-76
2022/04/26 13:34:45;;;;;;;1.05;0.30;;;32.60;44.10;;;;;;5036894;28;20223;-76
2022/04/26 13:37:12;;;;;;;2.08;0.22;;;32.80;44.30;;;;;;5031251;28;20212;-78
2022/04/26 13:39:39;;;;;;;0.30;0.30;;;33.00;43.70;;;;;;5034861;28;20323;-77
2022/04/26 13:42:06;;;;;;;3.50;0.47;;;33.10;43.90;;;;;;5028271;28;20717;-76
2022/04/26 13:44:32;;;;;;;0.45;0.35;;;33.10;44.70;;;;;;5025514;28;20191;-77
2022/04/26 13:46:58;;;;;;;1.10;0.50;;;32.90;44.60;;;;;;5031498;28;20223;-77
2022/04/26 13:49:25;;;;;;;1.42;0.40;;;32.70;45.80;;;;;;5030052;28;20229;-77
2022/04/26 13:51:51;;;;;;;0.32;0.30;;;32.60;45.50;;;;;;5029679;28;20188;-77
2022/04/26 13:54:16;;;;;;;0.98;0.32;;;32.50;45.50;;;;;;5029683;28;20563;-77
2022/04/26 13:56:42;;;;;;;3.78;0.55;;;32.50;44.70;;;;;;5029733;28;20322;-76
2022/04/26 13:59:09;;;;;;;2.35;0.55;;;32.40;45.00;;;;;;5038072;28;20854;-77
2022/04/26 14:01:35;;;;;;;1.90;0.40;;;31.90;45.30;;;;;;5037092;28;20214;-76
2022/04/26 14:04:01;;;;;;;0.50;0.50;;;31.20;46.00;;;;;;5031025;28;20218;-76
2022/04/26 14:06:35;;;;;;;0.57;0.50;;;30.50;47.20;;;;;;5033062;28;20651;-76
2022/04/26 14:09:01;;;;;;;2.05;0.40;;;30.00;47.90;;;;;;5029638;28;20187;-78
2022/04/26 14:11:26;;;;;;;0.73;0.50;;;29.50;48.50;;;;;;5034956;28;20605;-76
2022/04/26 14:22:07;;;;;;;0.70;0.55;;;27.90;50.60;;;;;;5032884;28;20604;-77
2022/04/26 14:24:36;;;;;;;1.63;0.40;;;27.50;51.10;;;;;;5032518;28;20314;-77
2022/04/26 14:27:02;;;;;;;1.40;0.35;;;27.30;51.50;;;;;;5032916;28;20184;-76
2022/04/26 14:29:28;;;;;;;0.47;0.35;;;27.10;51.50;;;;;;5028785;28;20237;-76
2022/04/26 14:31:53;;;;;;;1.63;0.50;;;26.80;51.90;;;;;;5029383;28;20662;-76
2022/04/26 14:34:19;;;;;;;3.58;0.43;;;26.70;51.60;;;;;;5034667;28;20179;-77
2022/04/26 14:36:45;;;;;;;1.65;0.40;;;26.50;52.20;;;;;;5032672;28;20211;-77
2022/04/26 14:39:12;;;;;;;0.30;0.30;;;26.30;52.10;;;;;;5029176;28;20207;-76
2022/04/26 14:41:40;;;;;;;3.20;0.40;;;25.90;52.30;;;;;;5033235;28;20635;-77
2022/04/26 14:44:06;;;;;;;4.70;0.77;;;25.70;52.50;;;;;;5032047;28;20684;-76
2022/04/26 14:46:33;;;;;;;0.50;0.50;;;25.40;53.00;;;;;;5033944;28;20195;-77
2022/04/26 14:48:59;;;;;;;1.27;0.55;;;25.10;53.40;;;;;;5033535;28;20218;-77
2022/04/26 14:51:25;;;;;;;0.30;0.30;;;24.90;53.50;;;;;;5030322;28;20222;-77
2022/04/26 14:53:51;;;;;;;1.50;0.40;;;24.60;54.30;;;;;;5035590;28;20735;-76
2022/04/26 14:56:17;;;;;;;1.05;0.57;;;24.40;54.00;;;;;;5035553;28;20687;-76
2022/04/26 14:58:43;;;;;;;0.55;0.40;;;24.20;54.50;;;;;;5031822;28;20259;-77
2022/04/26 15:01:10;;;;;;;1.20;0.30;;;24.00;54.40;;;;;;5030157;28;20177;-77
2022/04/26 15:03:36;;;;;;;0.20;0.20;;;23.90;54.10;;;;;;5032798;28;20199;-77
2022/04/26 15:06:02;;;;;;;0.68;0.40;;;23.50;54.70;;;;;;5034385;28;20177;-76
2022/04/26 15:11:12;;;;;;;3.85;0.55;;;23.10;56.10;;;;;;5038284;28;20258;-77
2022/04/26 15:16:37;;;;;;;4.68;0.52;;;22.70;56.60;;;;;;5030063;28;20257;-76
2022/04/26 15:19:09;;;;;;;0.73;0.38;;;22.60;56.60;;;;;;5033058;28;20175;-76
2022/04/26 15:21:35;;;;;;;1.95;0.80;;;22.60;58.30;;;;;;5028530;28;20193;-77
2022/04/26 15:24:02;;;;;;;1.50;0.50;;;22.50;57.00;;;;;;5030087;28;20276;-76
2022/04/26 15:26:28;;;;;;;0.70;0.40;;;22.50;58.60;;;;;;5029384;28;20838;-76
2022/04/26 15:28:55;;;;;;;2.50;0.45;;;22.40;58.80;;;;;;5029185;28;20688;-77
2022/04/26 15:31:21;;;;;;;0.60;0.60;;;22.30;58.50;;;;;;5035600;28;20187;-77
2022/04/26 15:33:50;;;;;;;0.38;0.38;;;22.30;57.90;;;;;;5027871;28;20175;-75
2022/04/26 15:36:17;;;;;;;0.30;0.30;;;22.20;57.30;;;;;;5030703;28;20722;-76
2022/04/26 15:38:43;;;;;;;0.60;0.40;;;22.00;59.10;;;;;;5031598;28;20181;-75
2022/04/26 15:41:09;;;;;;;2.63;0.60;;;22.00;58.40;;;;;;5026915;28;20263;-74
2022/04/26 15:43:37;;;;;;;0.40;0.40;;;21.90;59.70;;;;;;5031619;28;20264;-74
2022/04/26 15:46:05;;;;;;;0.50;0.50;;;21.90;59.00;;;;;;5028134;28;20274;-75
2022/04/26 15:48:30;;;;;;;1.05;0.40;;;21.80;59.00;;;;;;5031877;28;20206;-75
2022/04/26 15:50:57;;;;;;;0.35;0.35;;;21.70;58.90;;;;;;5028810;28;20184;-75
2022/04/26 15:53:22;;;;;;;0.73;0.30;;;21.70;60.30;;;;;;5034315;28;20187;-75
2022/04/26 15:55:51;;;;;;;0.30;0.30;;;21.70;60.40;;;;;;5029891;28;20185;-76
2022/04/26 15:58:17;;;;;;;0.20;0.20;;;21.60;60.30;;;;;;5030366;28;20214;-75
2022/04/26 16:00:44;;;;;;;0.40;0.40;;;21.60;59.90;;;;;;5029983;28;20192;-75
2022/04/26 16:03:10;;;;;;;0.32;0.32;;;21.60;60.30;;;;;;5027512;28;20207;-74
2022/04/26 16:05:36;;;;;;;0.32;0.32;;;21.50;60.10;;;;;;5030706;28;20203;-75
2022/04/26 16:08:03;;;;;;;2.00;0.20;;;21.50;61.10;;;;;;5034051;28;20180;-75
2022/04/26 16:21:30;;;;;;;0.25;0.25;;;20.80;60.90;;;;;;5031519;28;20303;-75
2022/04/26 16:23:57;;;;;;;0.93;0.30;;;20.70;62.40;;;;;;5027974;28;20246;-75
2022/04/26 16:26:24;;;;;;;0.30;0.30;;;20.60;62.40;;;;;;5029845;28;20183;-75
2022/04/26 16:28:51;;;;;;;0.30;0.30;;;20.50;64.40;;;;;;5031965;28;20180;-74
2022/04/26 16:31:19;;;;;;;0.30;0.30;;;20.40;62.70;;;;;;5059082;28;20272;-74
2022/04/26 16:33:45;;;;;;;0.20;0.20;;;20.30;63.20;;;;;;5023191;28;20804;-75
2022/04/26 16:36:11;;;;;;;0.30;0.30;;;20.10;63.60;;;;;;5026517;28;20197;-75
2022/04/26 16:38:38;;;;;;;0.55;0.30;;;20.10;64.10;;;;;;5027015;28;20203;-75
2022/04/26 16:41:05;;;;;;;2.15;0.22;;;19.80;64.90;;;;;;5029252;28;20180;-76
2022/04/26 16:43:33;;;;;;;2.38;0.50;;;19.70;65.30;;;;;;5065720;28;20515;-77
2022/04/26 16:46:01;;;;;;;2.00;0.38;;;19.60;65.20;;;;;;5030639;28;20270;-77
2022/04/26 16:48:27;;;;;;;0.43;0.30;;;19.50;64.90;;;;;;5028366;28;20192;-76
2022/04/26 16:50:53;;;;;;;0.30;0.30;;;19.40;64.70;;;;;;5030154;28;20254;-76
2022/04/26 16:53:19;;;;;;;0.40;0.40;;;19.40;64.70;;;;;;5028478;28;20271;-77
2022/04/26 16:55:46;;;;;;;1.13;0.40;;;19.30;65.20;;;;;;5029120;28;20196;-77
2022/04/26 16:58:13;;;;;;;1.05;0.43;;;19.30;65.70;;;;;;5027262;28;20230;-77
2022/04/26 17:00:41;;;;;;;2.45;0.40;;;19.20;66.40;;;;;;5026866;28;20243;-78
2022/04/26 17:03:07;;;;;;;0.30;0.30;;;19.20;65.50;;;;;;5036752;28;20268;-77
2022/04/26 17:05:32;;;;;;;2.72;0.40;;;19.10;65.60;;;;;;5025153;28;20745;-77
2022/04/26 17:07:58;;;;;;;1.20;0.43;;;19.10;65.90;;;;;;5026016;28;20193;-77
2022/04/26 17:10:25;;;;;;;0.40;0.40;;;19.10;66.80;;;;;;5030087;28;20190;-78
2022/04/26 17:12:52;;;;;;;0.40;0.40;;;19.10;67.00;;;;;;5029086;28;20995;-75
2022/04/26 17:15:19;;;;;;;0.40;0.40;;;18.90;66.80;;;;;;5028429;28;20694;-76
2022/04/26 17:17:46;;;;;;;0.47;0.40;;;18.80;66.40;;;;;;5032125;28;20310;-77
2022/04/26 17:20:14;;;;;;;1.77;0.40;;;18.70;67.60;;;;;;5025749;28;20187;-76
2022/04/26 17:22:41;;;;;;;0.30;0.30;;;18.50;67.40;;;;;;5023896;28;20184;-77
2022/04/26 17:25:13;;;;;;;0.40;0.40;;;18.40;67.60;;;;;;5034596;28;20180;-77